createdAt,value
2018-04-07T00:01:08.264Z,16.37
2018-04-07T00:03:34.552Z,14.53
2018-04-07T00:06:01.550Z,14.93
2018-04-07T00:08:27.869Z,15.83
2018-04-07T00:10:54.145Z,17.90
2018-04-07T00:13:20.418Z,15.97
2018-04-07T00:15:46.780Z,13.87
2018-04-07T00:18:16.809Z,18.23
2018-04-07T00:20:43.087Z,15.83
2018-04-07T00:23:09.595Z,16.67
2018-04-07T00:25:35.956Z,17.27
2018-04-07T00:28:02.228Z,17.53
2018-04-07T00:30:28.512Z,16.37
2018-04-07T00:32:54.836Z,16.53
2018-04-07T00:35:21.133Z,17.73
2018-04-07T00:37:47.529Z,15.50
2018-04-07T00:40:13.849Z,14.90
2018-04-07T00:42:40.164Z,20.70
2018-04-07T00:45:06.666Z,15.27
2018-04-07T00:47:32.992Z,17.97
2018-04-07T00:49:59.331Z,16.80
2018-04-07T00:52:25.669Z,16.77
2018-04-07T00:54:52.005Z,16.63
2018-04-07T00:57:18.330Z,20.37
2018-04-07T00:59:44.669Z,18.93
2018-04-07T01:02:11.026Z,18.87
2018-04-07T01:04:40.292Z,17.67
2018-04-07T01:07:06.567Z,17.83
2018-04-07T01:09:32.885Z,17.73
2018-04-07T01:11:59.209Z,17.83
2018-04-07T01:14:25.524Z,21.50
2018-04-07T01:16:51.849Z,14.80
2018-04-07T01:19:20.121Z,24.40
2018-04-07T01:21:46.396Z,18.43
2018-04-07T01:24:12.773Z,24.10
2018-04-07T01:26:39.054Z,19.67
2018-04-07T01:29:05.325Z,20.27
2018-04-07T01:31:31.658Z,19.90
2018-04-07T01:33:57.933Z,18.80
2018-04-07T01:36:24.205Z,21.43
2018-04-07T01:38:50.518Z,19.23
2018-04-07T01:41:16.790Z,18.50
2018-04-07T01:43:43.080Z,17.50
2018-04-07T01:46:09.451Z,17.03
2018-04-07T01:48:35.725Z,16.77
2018-04-07T01:51:02.000Z,14.77
2018-04-07T01:53:28.521Z,14.73
2018-04-07T01:55:54.833Z,18.30
2018-04-07T01:58:21.126Z,18.70
2018-04-07T02:00:47.400Z,19.97
2018-04-07T02:03:13.737Z,18.73
2018-04-07T02:05:40.041Z,18.10
2018-04-07T02:08:06.442Z,19.77
2018-04-07T02:10:32.720Z,22.80
2018-04-07T02:12:59.004Z,29.87
2018-04-07T02:15:25.494Z,25.43
2018-04-07T02:17:51.825Z,22.83
2018-04-07T02:20:18.332Z,20.23
2018-04-07T02:22:44.608Z,20.33
2018-04-07T02:25:10.918Z,21.20
2018-04-07T02:27:38.887Z,20.63
2018-04-07T02:30:05.171Z,20.83
2018-04-07T02:32:31.446Z,31.00
2018-04-07T02:34:58.064Z,28.83
2018-04-07T02:37:24.438Z,30.93
2018-04-07T02:39:50.716Z,15.57
2018-04-07T02:42:17.006Z,15.87
2018-04-07T02:44:43.477Z,15.23
2018-04-07T02:47:09.762Z,14.80
2018-04-07T02:49:36.039Z,14.13
2018-04-07T02:52:02.785Z,14.67
2018-04-07T02:54:29.077Z,13.33
2018-04-07T02:56:55.414Z,13.87
2018-04-07T02:59:21.777Z,15.40
2018-04-07T03:01:48.122Z,15.33
2018-04-07T03:04:14.518Z,52.40
2018-04-07T03:06:41.052Z,21.37
2018-04-07T03:09:07.357Z,19.17
2018-04-07T03:11:33.733Z,18.30
2018-04-07T03:14:00.010Z,17.90
2018-04-07T03:16:26.288Z,20.00
2018-04-07T03:18:52.615Z,20.73
2018-04-07T03:21:18.891Z,18.13
2018-04-07T03:23:45.172Z,25.97
2018-04-07T03:26:11.662Z,18.13
2018-04-07T03:28:37.952Z,18.27
2018-04-07T03:31:04.326Z,17.10
2018-04-07T03:33:31.591Z,13.90
2018-04-07T03:35:57.866Z,14.53
2018-04-07T03:38:24.196Z,15.40
2018-04-07T03:40:52.998Z,13.70
2018-04-07T03:43:19.275Z,11.63
2018-04-07T03:45:45.602Z,13.00
2018-04-07T03:48:12.113Z,11.10
2018-04-07T03:50:38.445Z,12.40
2018-04-07T03:53:04.772Z,13.07
2018-04-07T03:55:31.043Z,12.77
2018-04-07T03:57:57.436Z,15.63
2018-04-07T04:00:23.867Z,33.40
2018-04-07T04:02:50.150Z,18.13
2018-04-07T04:05:16.469Z,19.37
2018-04-07T04:07:43.652Z,15.47
2018-04-07T04:10:09.950Z,17.77
2018-04-07T04:12:36.216Z,15.10
2018-04-07T04:15:02.567Z,15.63
2018-04-07T04:17:28.890Z,15.80
2018-04-07T04:19:56.104Z,23.30
2018-04-07T04:22:22.492Z,17.63
2018-04-07T04:24:48.768Z,24.03
2018-04-07T04:27:15.052Z,44.07
2018-04-07T04:29:41.397Z,58.07
2018-04-07T04:32:07.673Z,36.63
2018-04-07T04:34:33.964Z,21.73
2018-04-07T04:37:01.562Z,23.40
2018-04-07T04:39:27.996Z,16.30
2018-04-07T04:41:54.321Z,32.67
2018-04-07T04:44:20.610Z,68.93
2018-04-07T04:46:46.924Z,54.60
2018-04-07T04:49:13.262Z,50.63
2018-04-07T04:51:39.562Z,51.03
2018-04-07T04:54:05.881Z,52.73
2018-04-07T04:56:32.177Z,56.90
2018-04-07T04:58:58.462Z,64.33
2018-04-07T05:01:24.837Z,68.37
2018-04-07T05:03:51.119Z,128.43
2018-04-07T05:06:17.422Z,122.47
2018-04-07T05:08:46.469Z,95.93
2018-04-07T05:11:12.739Z,58.57
2018-04-07T05:13:39.005Z,54.97
2018-04-07T05:16:05.378Z,53.90
2018-04-07T05:18:31.696Z,69.23
2018-04-07T05:20:57.998Z,88.20
2018-04-07T05:23:24.808Z,76.77
2018-04-07T05:25:51.106Z,83.47
2018-04-07T05:28:17.394Z,120.30
2018-04-07T05:30:43.756Z,56.03
2018-04-07T05:33:10.025Z,46.87
2018-04-07T05:35:36.307Z,41.77
2018-04-07T05:38:02.858Z,41.53
2018-04-07T05:40:29.175Z,46.60
2018-04-07T05:42:55.461Z,61.43
2018-04-07T05:45:21.929Z,49.97
2018-04-07T05:47:48.234Z,39.57
2018-04-07T05:50:14.640Z,33.03
2018-04-07T05:52:40.928Z,36.17
2018-04-07T05:55:07.224Z,41.93
2018-04-07T05:57:33.589Z,75.90
2018-04-07T05:59:59.863Z,44.17
2018-04-07T06:02:26.146Z,84.17
2018-04-07T06:04:52.651Z,66.60
2018-04-07T06:07:18.923Z,53.90
2018-04-07T06:09:45.485Z,55.60
2018-04-07T06:12:11.819Z,50.47
2018-04-07T06:14:38.154Z,81.27
2018-04-07T06:17:04.489Z,98.10
2018-04-07T06:19:30.763Z,95.63
2018-04-07T06:21:57.044Z,241.37
2018-04-07T06:24:23.428Z,325.17
2018-04-07T06:26:49.717Z,72.93
2018-04-07T06:29:16.001Z,27.60
2018-04-07T06:31:42.456Z,32.53
2018-04-07T06:34:08.801Z,30.63
2018-04-07T06:36:35.086Z,33.03
2018-04-07T06:39:01.424Z,43.90
2018-04-07T06:41:27.803Z,36.97
2018-04-07T06:43:54.077Z,35.83
2018-04-07T06:46:20.401Z,45.27
2018-04-07T06:48:46.722Z,56.47
2018-04-07T06:51:13.005Z,40.10
2018-04-07T06:53:42.322Z,34.57
2018-04-07T06:56:08.832Z,69.00
2018-04-07T06:58:35.109Z,56.20
2018-04-07T07:01:01.484Z,48.50
2018-04-07T07:03:27.756Z,59.83
2018-04-07T07:05:54.040Z,47.73
2018-04-07T07:08:20.472Z,41.90
2018-04-07T07:10:52.902Z,29.23
2018-04-07T07:13:19.170Z,36.50
2018-04-07T07:15:45.384Z,39.93
2018-04-07T07:18:11.866Z,41.37
2018-04-07T07:20:38.261Z,36.10
2018-04-07T07:23:04.475Z,32.07
2018-04-07T07:25:30.713Z,33.43
2018-04-07T07:27:57.133Z,56.67
2018-04-07T07:30:23.331Z,43.73
2018-04-07T07:32:49.550Z,43.17
2018-04-07T07:35:15.789Z,135.40
2018-04-07T07:37:41.982Z,140.33
2018-04-07T07:40:08.185Z,143.43
2018-04-07T07:42:34.481Z,82.40
2018-04-07T07:45:00.688Z,93.50
2018-04-07T07:47:26.910Z,51.67
2018-04-07T07:49:53.342Z,41.33
2018-04-07T07:52:19.532Z,31.43
2018-04-07T07:54:45.768Z,40.10
2018-04-07T07:57:11.960Z,54.23
2018-04-07T07:59:38.161Z,176.10
2018-04-07T08:02:04.449Z,36.43
2018-04-07T08:04:30.696Z,20.70
2018-04-07T08:06:56.886Z,19.00
2018-04-07T08:09:23.636Z,25.20
2018-04-07T08:11:50.109Z,14.57
2018-04-07T08:14:16.306Z,26.80
2018-04-07T08:16:42.557Z,46.57
2018-04-07T08:19:08.767Z,52.70
2018-04-07T08:21:34.948Z,94.83
2018-04-07T08:24:01.245Z,73.73
2018-04-07T08:26:27.452Z,91.60
2018-04-07T08:28:53.842Z,78.43
2018-04-07T08:31:20.205Z,61.97
2018-04-07T08:33:46.498Z,58.10
2018-04-07T08:36:12.790Z,57.87
2018-04-07T08:38:39.326Z,60.90
2018-04-07T08:41:05.661Z,63.13
2018-04-07T08:43:32.852Z,50.53
2018-04-07T08:45:59.122Z,47.97
2018-04-07T08:48:25.439Z,45.20
2018-04-07T08:50:51.791Z,35.10
2018-04-07T08:53:18.197Z,28.60
2018-04-07T08:55:44.488Z,29.50
2018-04-07T08:58:11.073Z,30.63
2018-04-07T09:00:37.433Z,31.60
2018-04-07T09:03:03.752Z,27.00
2018-04-07T09:05:33.931Z,22.53
2018-04-07T09:08:00.291Z,26.07
2018-04-07T09:10:26.618Z,27.90
2018-04-07T09:12:53.021Z,22.77
2018-04-07T09:15:19.363Z,19.23
2018-04-07T09:17:45.656Z,19.70
2018-04-07T09:20:12.197Z,17.53
2018-04-07T09:22:38.497Z,18.13
2018-04-07T09:25:04.849Z,16.63
2018-04-07T09:27:31.147Z,14.60
2018-04-07T09:29:57.921Z,14.03
2018-04-07T09:32:24.267Z,13.17
2018-04-07T09:34:50.536Z,20.57
2018-04-07T09:37:16.912Z,16.90
2018-04-07T09:39:43.199Z,14.70
2018-04-07T09:42:09.531Z,30.87
2018-04-07T09:44:36.180Z,22.73
2018-04-07T09:47:02.503Z,49.07
2018-04-07T09:49:28.855Z,18.27
2018-04-07T09:51:55.137Z,5.60
2018-04-07T09:54:21.436Z,5.00
2018-04-07T09:56:47.813Z,25.37
2018-04-07T09:59:14.112Z,10.43
2018-04-07T10:01:41.291Z,11.53
2018-04-07T10:04:07.622Z,7.27
2018-04-07T10:06:33.914Z,5.13
2018-04-07T10:09:00.229Z,5.53
2018-04-07T10:11:27.598Z,5.10
2018-04-07T10:13:53.910Z,19.27
2018-04-07T10:16:20.206Z,6.77
2018-04-07T10:18:46.624Z,4.47
2018-04-07T10:21:12.920Z,5.30
2018-04-07T10:23:39.294Z,3.20
2018-04-07T10:26:05.651Z,9.03
2018-04-07T10:28:31.937Z,5.43
2018-04-07T10:30:58.221Z,7.70
2018-04-07T10:33:24.557Z,3.87
2018-04-07T10:35:50.875Z,3.23
2018-04-07T10:38:17.179Z,5.20
2018-04-07T10:40:43.619Z,9.47
2018-04-07T10:43:10.676Z,5.53
2018-04-07T10:45:36.956Z,15.07
2018-04-07T10:48:03.325Z,14.33
2018-04-07T10:50:29.620Z,20.57
2018-04-07T10:52:55.899Z,23.20
2018-04-07T10:55:22.228Z,17.47
2018-04-07T10:57:48.508Z,8.33
2018-04-07T11:00:14.794Z,4.60
2018-04-07T11:02:41.161Z,18.33
2018-04-07T11:05:07.482Z,9.07
2018-04-07T11:07:33.769Z,10.97
2018-04-07T11:10:00.272Z,11.93
2018-04-07T11:12:26.807Z,11.50
2018-04-07T11:14:53.202Z,21.60
2018-04-07T11:17:19.890Z,9.97
2018-04-07T11:19:46.185Z,16.97
2018-04-07T11:22:12.484Z,15.47
2018-04-07T11:24:39.021Z,21.17
2018-04-07T11:27:05.528Z,41.43
2018-04-07T11:29:32.038Z,6.97
2018-04-07T11:31:58.321Z,4.17
2018-04-07T11:34:24.689Z,7.23
2018-04-07T11:36:51.005Z,7.20
2018-04-07T11:39:17.290Z,12.00
2018-04-07T11:41:43.580Z,7.87
2018-04-07T11:44:10.108Z,3.27
2018-04-07T11:46:36.390Z,4.10
2018-04-07T11:49:02.728Z,6.20
2018-04-07T11:51:29.012Z,4.13
2018-04-07T11:53:55.359Z,6.40
2018-04-07T11:56:21.652Z,20.23
2018-04-07T11:58:48.013Z,8.67
2018-04-07T12:01:14.494Z,10.60
2018-04-07T12:03:40.780Z,11.77
2018-04-07T12:06:07.072Z,10.50
2018-04-07T12:08:33.576Z,18.73
2018-04-07T12:11:00.196Z,11.93
2018-04-07T12:13:27.687Z,9.83
2018-04-07T12:15:54.018Z,7.57
2018-04-07T12:18:20.318Z,10.57
2018-04-07T12:20:46.673Z,9.13
2018-04-07T12:23:12.946Z,7.97
2018-04-07T12:25:39.312Z,16.67
2018-04-07T12:28:05.720Z,17.63
2018-04-07T12:30:32.013Z,9.00
2018-04-07T12:32:59.310Z,13.13
2018-04-07T12:35:25.674Z,6.73
2018-04-07T12:37:52.018Z,4.90
2018-04-07T12:40:18.300Z,9.30
2018-04-07T12:42:44.622Z,19.70
2018-04-07T12:45:10.909Z,7.57
2018-04-07T12:47:37.292Z,7.83
2018-04-07T12:50:03.628Z,14.20
2018-04-07T12:52:29.909Z,6.03
2018-04-07T12:54:56.493Z,8.97
2018-04-07T12:57:23.395Z,8.43
2018-04-07T12:59:49.741Z,12.87
2018-04-07T13:02:16.052Z,9.53
2018-04-07T13:04:42.420Z,5.63
2018-04-07T13:07:08.801Z,5.13
2018-04-07T13:09:35.113Z,4.93
2018-04-07T13:12:01.382Z,8.20
2018-04-07T13:14:27.716Z,6.97
2018-04-07T13:16:54.060Z,6.60
2018-04-07T13:19:20.333Z,6.37
2018-04-07T13:21:46.660Z,9.03
2018-04-07T13:24:12.933Z,12.63
2018-04-07T13:26:39.213Z,9.57
2018-04-07T13:29:05.820Z,7.63
2018-04-07T13:31:32.115Z,9.80
2018-04-07T13:33:58.511Z,12.00
2018-04-07T13:36:24.802Z,10.10
2018-04-07T13:38:51.169Z,6.03
2018-04-07T13:41:17.457Z,6.23
2018-04-07T13:43:43.733Z,5.00
2018-04-07T13:46:13.102Z,2.03
2018-04-07T13:48:39.396Z,2.23
2018-04-07T13:51:05.723Z,3.97
2018-04-07T13:53:32.067Z,2.73
2018-04-07T13:55:58.384Z,3.50
2018-04-07T13:58:24.682Z,1.97
2018-04-07T14:00:51.126Z,1.80
2018-04-07T14:03:17.422Z,2.60
2018-04-07T14:05:43.719Z,1.83
2018-04-07T14:08:10.222Z,2.20
2018-04-07T14:10:36.541Z,2.53
2018-04-07T14:13:02.848Z,3.77
2018-04-07T14:15:29.137Z,3.00
2018-04-07T14:17:55.519Z,3.03
2018-04-07T14:20:21.803Z,2.60
2018-04-07T14:22:50.546Z,2.73
2018-04-07T14:25:16.933Z,2.60
2018-04-07T14:27:43.209Z,3.30
2018-04-07T14:30:09.600Z,2.90
2018-04-07T14:32:36.165Z,4.20
2018-04-07T14:35:02.465Z,2.17
2018-04-07T14:37:28.870Z,2.50
2018-04-07T14:39:55.158Z,8.03
2018-04-07T14:42:21.433Z,13.93
2018-04-07T14:44:47.786Z,9.00
2018-04-07T14:47:14.064Z,9.30
2018-04-07T14:49:40.465Z,5.03
2018-04-07T14:52:06.840Z,3.30
2018-04-07T14:54:33.135Z,5.00
2018-04-07T14:56:59.512Z,3.37
2018-04-07T14:59:25.806Z,4.43
2018-04-07T15:01:52.105Z,8.40
2018-04-07T15:04:21.554Z,7.10
2018-04-07T15:06:47.896Z,6.33
2018-04-07T15:09:14.229Z,6.03
2018-04-07T15:11:40.503Z,8.90
2018-04-07T15:14:06.842Z,7.27
2018-04-07T15:16:33.147Z,6.27
2018-04-07T15:19:02.769Z,6.23
2018-04-07T15:21:29.044Z,5.60
2018-04-07T15:23:55.336Z,3.63
2018-04-07T15:26:21.754Z,3.70
2018-04-07T15:28:48.068Z,4.40
2018-04-07T15:31:14.597Z,5.60
2018-04-07T15:33:41.114Z,9.57
2018-04-07T15:36:07.501Z,11.40
2018-04-07T15:38:33.907Z,9.73
2018-04-07T15:41:00.215Z,7.03
2018-04-07T15:43:26.576Z,8.40
2018-04-07T15:45:52.854Z,7.33
2018-04-07T15:48:19.374Z,7.23
2018-04-07T15:50:45.713Z,8.80
2018-04-07T15:53:12.074Z,18.20
2018-04-07T15:55:38.589Z,12.53
2018-04-07T15:58:04.943Z,26.03
2018-04-07T16:00:31.229Z,36.97
2018-04-07T16:02:57.509Z,35.97
2018-04-07T16:05:23.889Z,30.30
2018-04-07T16:07:55.883Z,34.57
2018-04-07T16:10:22.549Z,47.73
2018-04-07T16:12:48.901Z,51.17
2018-04-07T16:15:15.416Z,58.60
2018-04-07T16:17:41.716Z,47.30
2018-04-07T16:20:08.260Z,33.73
2018-04-07T16:22:34.719Z,29.47
2018-04-07T16:25:01.014Z,25.27
2018-04-07T16:27:27.324Z,22.77
2018-04-07T16:29:53.733Z,20.63
2018-04-07T16:32:20.084Z,16.50
2018-04-07T16:34:46.437Z,10.73
2018-04-07T16:37:13.417Z,19.93
2018-04-07T16:39:39.748Z,26.87
2018-04-07T16:42:06.117Z,26.53
2018-04-07T16:44:32.413Z,28.67
2018-04-07T16:46:58.755Z,31.43
2018-04-07T16:49:25.121Z,33.47
2018-04-07T16:51:51.414Z,34.47
2018-04-07T16:54:18.107Z,37.53
2018-04-07T16:56:44.450Z,40.07
2018-04-07T16:59:10.744Z,35.77
2018-04-07T17:01:37.965Z,37.03
2018-04-07T17:04:04.342Z,19.43
2018-04-07T17:06:30.631Z,39.03
2018-04-07T17:08:56.958Z,24.33
2018-04-07T17:11:23.408Z,37.93
2018-04-07T17:13:49.727Z,85.03
2018-04-07T17:16:16.016Z,84.47
2018-04-07T17:18:42.327Z,51.07
2018-04-07T17:21:08.681Z,27.23
2018-04-07T17:23:34.996Z,124.90
2018-04-07T17:26:01.362Z,34.97
2018-04-07T17:28:27.648Z,33.27
2018-04-07T17:30:53.943Z,65.90
2018-04-07T17:33:20.429Z,148.53
2018-04-07T17:35:46.823Z,38.33
2018-04-07T17:38:13.122Z,74.73
2018-04-07T17:40:39.416Z,73.63
2018-04-07T17:43:05.999Z,75.27
2018-04-07T17:45:32.280Z,68.10
2018-04-07T17:47:58.596Z,71.47
2018-04-07T17:50:25.021Z,33.93
2018-04-07T17:52:51.366Z,39.30
2018-04-07T17:55:17.736Z,34.97
2018-04-07T17:57:44.034Z,35.33
2018-04-07T18:00:10.316Z,61.90
2018-04-07T18:02:36.689Z,54.10
2018-04-07T18:05:03.031Z,44.73
2018-04-07T18:07:29.305Z,84.47
2018-04-07T18:09:55.644Z,52.77
2018-04-07T18:12:22.066Z,52.70
2018-04-07T18:14:48.352Z,52.27
2018-04-07T18:17:14.693Z,49.97
2018-04-07T18:19:41.074Z,43.87
2018-04-07T18:22:07.379Z,46.10
2018-04-07T18:24:34.560Z,46.57
2018-04-07T18:27:00.901Z,60.20
2018-04-07T18:29:27.210Z,85.63
2018-04-07T18:31:53.494Z,82.80
2018-04-07T18:34:19.881Z,56.47
2018-04-07T18:36:46.255Z,32.33
2018-04-07T18:39:12.535Z,20.93
2018-04-07T18:41:38.865Z,26.00
2018-04-07T18:44:05.294Z,54.47
2018-04-07T18:46:31.625Z,20.07
2018-04-07T18:48:57.896Z,17.93
2018-04-07T18:51:24.284Z,20.80
2018-04-07T18:53:50.648Z,28.20
2018-04-07T18:56:16.959Z,37.40
2018-04-07T18:58:43.390Z,41.83
2018-04-07T19:01:09.814Z,51.43
2018-04-07T19:03:36.098Z,39.30
2018-04-07T19:06:02.465Z,38.40
2018-04-07T19:08:28.818Z,63.73
2018-04-07T19:10:55.261Z,42.00
2018-04-07T19:13:23.416Z,39.87
2018-04-07T19:15:49.697Z,45.40
2018-04-07T19:18:16.062Z,52.83
2018-04-07T19:20:42.348Z,55.57
2018-04-07T19:23:08.627Z,54.20
2018-04-07T19:25:34.981Z,63.00
2018-04-07T19:28:01.355Z,71.30
2018-04-07T19:30:27.736Z,85.23
2018-04-07T19:32:54.126Z,113.73
2018-04-07T19:35:20.473Z,90.13
2018-04-07T19:37:46.834Z,30.90
2018-04-07T19:40:13.265Z,221.07
2018-04-07T19:42:39.544Z,139.97
2018-04-07T19:45:05.829Z,103.83
2018-04-07T19:47:33.017Z,60.77
2018-04-07T19:49:59.287Z,49.60
2018-04-07T19:52:25.568Z,78.73
2018-04-07T19:54:51.997Z,74.50
2018-04-07T19:57:18.286Z,51.63
2018-04-07T19:59:44.580Z,37.47
2018-04-07T20:02:10.939Z,34.50
2018-04-07T20:04:37.226Z,31.77
2018-04-07T20:07:03.536Z,33.07
2018-04-07T20:09:29.954Z,46.77
2018-04-07T20:11:56.448Z,76.43
2018-04-07T20:14:23.047Z,85.13
2018-04-07T20:16:49.430Z,87.90
2018-04-07T20:19:15.783Z,40.03
2018-04-07T20:21:42.072Z,82.53
2018-04-07T20:24:08.461Z,102.23
2018-04-07T20:26:34.728Z,50.27
2018-04-07T20:29:01.012Z,26.70
2018-04-07T20:31:27.347Z,17.33
2018-04-07T20:33:53.630Z,27.50
2018-04-07T20:36:20.092Z,33.60
2018-04-07T20:38:46.376Z,59.77
2018-04-07T20:41:12.652Z,48.37
2018-04-07T20:43:38.968Z,58.23
2018-04-07T20:46:05.249Z,68.20
2018-04-07T20:48:31.532Z,92.43
2018-04-07T20:50:57.850Z,82.73
2018-04-07T20:53:24.121Z,76.80
2018-04-07T20:55:50.425Z,66.30
2018-04-07T20:58:16.801Z,44.10
2018-04-07T21:00:43.088Z,41.93
2018-04-07T21:03:09.370Z,42.73
2018-04-07T21:05:35.700Z,43.67
2018-04-07T21:08:01.987Z,41.27
2018-04-07T21:10:32.270Z,54.10
2018-04-07T21:12:58.679Z,53.87
2018-04-07T21:15:25.018Z,32.70
2018-04-07T21:17:51.450Z,33.37
2018-04-07T21:20:17.727Z,30.90
2018-04-07T21:22:44.018Z,34.23
2018-04-07T21:25:13.372Z,38.97
2018-04-07T21:27:39.658Z,33.90
2018-04-07T21:30:05.963Z,37.57
2018-04-07T21:32:32.364Z,48.57
2018-04-07T21:34:58.668Z,38.70
2018-04-07T21:37:24.949Z,34.90
2018-04-07T21:39:51.404Z,44.27
2018-04-07T21:42:17.862Z,32.40
2018-04-07T21:44:44.145Z,20.30
2018-04-07T21:47:10.420Z,18.30
2018-04-07T21:49:36.772Z,24.33
2018-04-07T21:52:03.056Z,23.80
2018-04-07T21:54:29.365Z,26.80
2018-04-07T21:56:55.757Z,28.03
2018-04-07T21:59:22.042Z,26.97
2018-04-07T22:01:48.411Z,26.77
2018-04-07T22:04:14.704Z,30.47
2018-04-07T22:06:41.025Z,33.57
2018-04-07T22:09:07.414Z,30.10
2018-04-07T22:14:17.711Z,28.80
2018-04-07T22:16:44.149Z,32.33
2018-04-07T22:19:10.465Z,30.97
2018-04-07T22:21:36.939Z,29.17
2018-04-07T22:24:03.221Z,33.23
2018-04-07T22:26:29.556Z,31.13
2018-04-07T22:28:55.893Z,23.17
2018-04-07T22:31:22.220Z,19.77
2018-04-07T22:33:48.535Z,18.87
2018-04-07T22:36:14.988Z,16.53
2018-04-07T22:38:42.357Z,15.43
2018-04-07T22:41:08.630Z,12.60
2018-04-07T22:43:34.945Z,13.80
2018-04-07T22:46:03.195Z,12.20
2018-04-07T22:48:29.474Z,14.00
2018-04-07T22:50:55.816Z,23.27
2018-04-07T22:53:22.876Z,22.10
2018-04-07T22:55:49.238Z,22.93
2018-04-07T22:58:15.532Z,24.60
2018-04-07T23:00:41.919Z,33.33
2018-04-07T23:03:08.233Z,31.53
2018-04-07T23:05:34.536Z,29.80
2018-04-07T23:08:00.869Z,20.03
2018-04-07T23:10:27.189Z,28.30
2018-04-07T23:12:53.513Z,30.30
2018-04-07T23:15:19.797Z,34.80
2018-04-07T23:17:46.178Z,28.80
2018-04-07T23:20:12.461Z,20.97
2018-04-07T23:22:38.742Z,22.97
2018-04-07T23:25:05.112Z,19.77
2018-04-07T23:27:31.371Z,17.90
2018-04-07T23:29:57.645Z,19.00
2018-04-07T23:32:24.020Z,19.20
2018-04-07T23:34:50.301Z,19.10
2018-04-07T23:37:16.610Z,24.10
2018-04-07T23:39:43.005Z,22.37
2018-04-07T23:42:09.281Z,22.53
2018-04-07T23:44:35.704Z,20.23
2018-04-07T23:47:01.985Z,21.43
2018-04-07T23:49:28.270Z,18.90
2018-04-07T23:51:54.610Z,17.77
2018-04-07T23:54:20.893Z,22.97
2018-04-07T23:56:47.427Z,28.70
2018-04-07T23:59:13.734Z,21.13
